Terminal Aerodrome Forecast
Issued by NWS Anchorage, AK

Home | Current Version | Previous Version | Text Only | Print | Product List | Glossary On
Versions: 1 2 3 4 5 6 7 8 9 10 11 12 13 14 15 16 17 18 19 20 21
000
FTAK31 PANC 251200 AAB
TAFANC
TAF AMD
PANC 251200Z 2512/2618 13005KT P6SM FEW070 BKN100
     FM251400 VRB06KT P6SM FEW080 BKN100
     FM252100 15008G18KT P6SM FEW070 BKN100
     FM260100 16015G25KT P6SM SCT070 BKN100=

USA.gov is the U.S. government's official web portal to all federal, state and local government web resources and services.